Time,TemperatureF,DewpointF,PressureIn,WindDirection,WindDirectionDegrees,WindSpeedMPH,WindSpeedGustMPH,Humidity,HourlyPrecipIn,Conditions,Clouds,dailyrainin,SolarRadiationWatts/m^2,SoftwareType,DateUTC
2013-09-15 00:02:00,59.0,54.0,-100.00,NE,52,4.0,11.0,82,0.00,,,0.10,0.000000,,2013-09-15 06:02:00,
2013-09-15 00:12:00,59.0,54.0,-100.00,NE,52,4.0,11.0,82,0.00,,,0.10,0.000000,,2013-09-15 06:12:00,
2013-09-15 00:21:00,59.0,54.0,-100.00,NE,52,4.0,11.0,82,0.00,,,0.10,0.000000,,2013-09-15 06:21:00,
2013-09-15 00:52:00,60.0,53.0,-100.00,ENE,71,2.0,9.0,78,0.00,,,0.10,0.000000,,2013-09-15 06:52:00,
2013-09-15 01:02:00,60.0,53.0,-100.00,ENE,71,2.0,9.0,78,0.00,,,0.10,0.000000,,2013-09-15 07:02:00,
2013-09-15 01:11:00,60.0,53.0,-100.00,ENE,71,2.0,9.0,78,0.00,,,0.10,0.000000,,2013-09-15 07:11:00,
2013-09-15 01:22:00,60.0,53.0,-100.00,ENE,71,2.0,9.0,78,0.00,,,0.10,0.000000,,2013-09-15 07:22:00,
2013-09-15 01:52:00,57.0,50.0,-100.00,East,96,5.0,10.0,78,0.00,,,0.10,0.000000,,2013-09-15 07:52:00,
2013-09-15 02:02:00,57.0,50.0,-100.00,East,96,5.0,10.0,78,0.00,,,0.10,0.000000,,2013-09-15 08:02:00,
2013-09-15 02:11:00,57.0,50.0,-100.00,East,96,5.0,10.0,78,0.00,,,0.10,0.000000,,2013-09-15 08:11:00,
2013-09-15 02:22:00,57.0,50.0,-100.00,East,96,5.0,10.0,78,0.00,,,0.10,0.000000,,2013-09-15 08:22:00,
2013-09-15 02:52:00,56.0,49.0,-100.00,ESE,121,3.0,9.0,78,0.00,,,0.10,0.000000,,2013-09-15 08:52:00,
2013-09-15 03:02:00,56.0,49.0,-100.00,ESE,121,3.0,9.0,78,0.00,,,0.10,0.000000,,2013-09-15 09:02:00,
2013-09-15 03:12:00,56.0,49.0,-100.00,ESE,121,3.0,9.0,78,0.00,,,0.10,0.000000,,2013-09-15 09:12:00,
2013-09-15 03:22:00,56.0,49.0,-100.00,ESE,121,3.0,9.0,78,0.00,,,0.10,0.000000,,2013-09-15 09:22:00,
2013-09-15 03:53:00,54.0,48.0,-100.00,ENE,78,2.0,6.0,81,0.00,,,0.09,0.000000,,2013-09-15 09:53:00,
2013-09-15 04:03:00,54.0,48.0,-100.00,ENE,78,2.0,6.0,81,0.00,,,0.09,0.000000,,2013-09-15 10:03:00,
2013-09-15 04:13:00,54.0,48.0,-100.00,ENE,78,2.0,6.0,81,0.00,,,0.09,0.000000,,2013-09-15 10:13:00,
2013-09-15 04:23:00,54.0,48.0,-100.00,ENE,78,2.0,6.0,81,0.00,,,0.09,0.000000,,2013-09-15 10:23:00,
2013-09-15 04:53:00,52.0,49.0,-100.00,NE,49,2.0,5.0,91,0.00,,,0.09,0.000000,,2013-09-15 10:53:00,
2013-09-15 05:02:00,52.0,49.0,-100.00,NE,49,2.0,5.0,91,0.00,,,0.09,0.000000,,2013-09-15 11:02:00,
2013-09-15 05:12:00,52.0,49.0,-100.00,NE,49,2.0,5.0,91,0.00,,,0.09,0.000000,,2013-09-15 11:12:00,
2013-09-15 05:22:00,52.0,49.0,-100.00,NE,49,2.0,5.0,91,0.00,,,0.09,0.000000,,2013-09-15 11:22:00,
2013-09-15 05:52:00,50.0,49.0,-100.00,NE,56,2.0,5.0,97,0.00,,,0.09,0.000000,,2013-09-15 11:52:00,
2013-09-15 06:02:00,50.0,49.0,-100.00,NE,56,2.0,5.0,97,0.00,,,0.09,0.000000,,2013-09-15 12:02:00,
2013-09-15 06:12:00,50.0,49.0,-100.00,NE,56,2.0,5.0,97,0.00,,,0.09,0.000000,,2013-09-15 12:12:00,
2013-09-15 06:21:00,50.0,49.0,-100.00,NE,56,2.0,5.0,97,0.00,,,0.09,0.000000,,2013-09-15 12:21:00,
2013-09-15 06:52:00,47.0,47.0,-100.00,South,176,2.0,4.0,99,0.00,,,0.08,0.000000,,2013-09-15 12:52:00,
2013-09-15 07:02:00,47.0,47.0,-100.00,South,176,2.0,4.0,99,0.00,,,0.08,0.000000,,2013-09-15 13:02:00,
2013-09-15 07:11:00,47.0,47.0,-100.00,South,176,2.0,4.0,99,0.00,,,0.08,0.000000,,2013-09-15 13:11:00,
2013-09-15 07:21:00,47.0,47.0,-100.00,South,176,2.0,4.0,99,0.00,,,0.08,0.000000,,2013-09-15 13:21:00,
2013-09-15 07:53:00,52.0,50.0,-100.00,SE,145,2.0,7.0,94,0.00,,,0.07,16.000000,,2013-09-15 13:53:00,
2013-09-15 08:02:00,52.0,50.0,-100.00,SE,145,2.0,7.0,94,0.00,,,0.07,16.000000,,2013-09-15 14:02:00,
2013-09-15 08:12:00,52.0,50.0,-100.00,SE,145,2.0,7.0,94,0.00,,,0.07,16.000000,,2013-09-15 14:12:00,
2013-09-15 08:22:00,52.0,50.0,-100.00,SE,145,2.0,7.0,94,0.00,,,0.07,16.000000,,2013-09-15 14:22:00,
2013-09-15 13:22:00,66.0,50.0,-100.00,SE,137,7.0,15.0,57,0.00,,,0.01,837.000000,,2013-09-15 19:22:00,
2013-09-15 13:52:00,69.0,50.0,-100.00,SE,138,8.0,16.0,51,0.00,,,0.00,874.000000,,2013-09-15 19:52:00,
2013-09-15 14:02:00,69.0,50.0,-100.00,SE,138,8.0,16.0,51,0.00,,,0.00,874.000000,,2013-09-15 20:02:00,
2013-09-15 14:11:00,69.0,50.0,-100.00,SE,138,8.0,16.0,51,0.00,,,0.00,874.000000,,2013-09-15 20:11:00,
2013-09-15 14:22:00,69.0,50.0,-100.00,SE,138,8.0,16.0,51,0.00,,,0.00,874.000000,,2013-09-15 20:22:00,
2013-09-15 14:53:00,68.0,46.0,-100.00,SSE,153,9.0,16.0,45,0.00,,,0.00,847.000000,,2013-09-15 20:53:00,
2013-09-15 15:02:00,68.0,46.0,-100.00,SSE,153,9.0,16.0,45,0.00,,,0.00,847.000000,,2013-09-15 21:02:00,
2013-09-15 15:11:00,68.0,46.0,-100.00,SSE,153,9.0,16.0,45,0.00,,,0.00,847.000000,,2013-09-15 21:11:00,
2013-09-15 15:21:00,68.0,46.0,-100.00,SSE,153,9.0,16.0,45,0.00,,,0.00,847.000000,,2013-09-15 21:21:00,
2013-09-15 15:54:00,69.0,47.0,-100.00,SSE,160,8.0,16.0,45,0.00,,,0.00,756.000000,,2013-09-15 21:54:00,
2013-09-15 16:04:00,69.0,47.0,-100.00,SSE,160,8.0,16.0,45,0.00,,,0.00,756.000000,,2013-09-15 22:04:00,
2013-09-15 16:14:00,69.0,47.0,-100.00,SSE,160,8.0,16.0,45,0.00,,,0.00,756.000000,,2013-09-15 22:14:00,
2013-09-15 16:23:00,69.0,47.0,-100.00,SSE,160,8.0,16.0,45,0.00,,,0.00,756.000000,,2013-09-15 22:23:00,
2013-09-15 16:53:00,71.0,47.0,-100.00,SE,144,7.0,21.0,42,0.00,,,0.00,612.000000,,2013-09-15 22:53:00,
2013-09-15 17:02:00,71.0,47.0,-100.00,SE,144,7.0,21.0,42,0.00,,,0.00,612.000000,,2013-09-15 23:02:00,
2013-09-15 17:12:00,71.0,47.0,-100.00,SE,144,7.0,21.0,42,0.00,,,0.00,612.000000,,2013-09-15 23:12:00,
2013-09-15 17:22:00,71.0,47.0,-100.00,SE,144,7.0,21.0,42,0.00,,,0.00,612.000000,,2013-09-15 23:22:00,
2013-09-15 17:53:00,70.0,46.0,-100.00,SSE,154,7.0,15.0,42,0.00,,,0.00,429.000000,,2013-09-15 23:53:00,
2013-09-15 18:01:00,70.0,46.0,-100.00,SSE,154,7.0,15.0,42,0.00,,,0.00,429.000000,,2013-09-16 00:01:00,
2013-09-15 18:11:00,70.0,46.0,-100.00,SSE,154,7.0,15.0,42,0.00,,,0.00,429.000000,,2013-09-16 00:11:00,
2013-09-15 18:22:00,70.0,46.0,-100.00,SSE,154,7.0,15.0,42,0.00,,,0.00,429.000000,,2013-09-16 00:22:00,
2013-09-15 18:52:00,64.0,44.0,-100.00,SE,130,7.0,12.0,49,0.00,,,0.00,74.000000,,2013-09-16 00:52:00,
2013-09-15 19:02:00,64.0,44.0,-100.00,SE,130,7.0,12.0,49,0.00,,,0.00,74.000000,,2013-09-16 01:02:00,
2013-09-15 19:12:00,64.0,44.0,-100.00,SE,130,7.0,12.0,49,0.00,,,0.00,74.000000,,2013-09-16 01:12:00,
2013-09-15 19:21:00,64.0,44.0,-100.00,SE,130,7.0,12.0,49,0.00,,,0.00,74.000000,,2013-09-16 01:21:00,
2013-09-15 19:52:00,61.0,45.0,-100.00,SE,127,4.0,12.0,55,0.00,,,0.00,11.000000,,2013-09-16 01:52:00,
2013-09-15 20:02:00,61.0,45.0,-100.00,SE,127,4.0,12.0,55,0.00,,,0.00,11.000000,,2013-09-16 02:02:00,
2013-09-15 20:12:00,61.0,45.0,-100.00,SE,127,4.0,12.0,55,0.00,,,0.00,11.000000,,2013-09-16 02:12:00,
2013-09-15 20:22:00,61.0,45.0,-100.00,SE,127,4.0,12.0,55,0.00,,,0.00,11.000000,,2013-09-16 02:22:00,
2013-09-15 20:52:00,57.0,45.0,-100.00,SE,140,5.0,9.0,64,0.00,,,0.00,0.000000,,2013-09-16 02:52:00,
2013-09-15 21:02:00,57.0,45.0,-100.00,SE,140,5.0,9.0,64,0.00,,,0.00,0.000000,,2013-09-16 03:02:00,
2013-09-15 21:11:00,57.0,45.0,-100.00,SE,140,5.0,9.0,64,0.00,,,0.00,0.000000,,2013-09-16 03:11:00,
2013-09-15 21:22:00,57.0,45.0,-100.00,SE,140,5.0,9.0,64,0.00,,,0.00,0.000000,,2013-09-16 03:22:00,
2013-09-15 21:24:00,55.0,43.0,-100.00,SE,141,4.0,12.0,65,0.00,,,0.00,0.000000,,2013-09-16 03:24:00,
2013-09-15 21:55:00,55.0,43.0,-100.00,SE,141,4.0,12.0,65,0.00,,,0.00,0.000000,,2013-09-16 03:55:00,
2013-09-15 22:05:00,55.0,43.0,-100.00,SE,141,4.0,12.0,65,0.00,,,0.00,0.000000,,2013-09-16 04:05:00,
2013-09-15 22:13:00,55.0,43.0,-100.00,SE,141,4.0,12.0,65,0.00,,,0.00,0.000000,,2013-09-16 04:13:00,
2013-09-15 22:54:00,55.0,44.0,-100.00,SE,146,8.0,15.0,67,0.00,,,0.00,0.000000,,2013-09-16 04:54:00,
2013-09-15 23:04:00,55.0,44.0,-100.00,SE,146,8.0,15.0,67,0.00,,,0.00,0.000000,,2013-09-16 05:04:00,
2013-09-15 23:13:00,55.0,44.0,-100.00,SE,146,8.0,15.0,67,0.00,,,0.00,0.000000,,2013-09-16 05:13:00,
2013-09-15 23:22:00,55.0,44.0,-100.00,SE,146,8.0,15.0,67,0.00,,,0.00,0.000000,,2013-09-16 05:22:00,
2013-09-15 23:53:00,56.0,48.0,-100.00,SSE,159,8.0,20.0,74,0.00,,,0.00,0.000000,,2013-09-16 05:53:00,